Hamburg Helmut Schmidt Airport

EDDH · Hamburg, 德国

罗盘
风向 的 风向 050° Hamburg Airport 5/23
风: 8 kt, 3 beaufort

8 kt

改变
0 1.000 2.000 3.000 4.000 5.000
BKN 1.800 ft
METAR ETNH 021840Z 05008KT 9000 BKN018 04/03 Q1028 WHT

METAR Hamburg Airport - EDDH/HAM

Hamburg Airport是,德国中的大型机场。 该机场有2条跑道: 5/23 和 15/33. 该领域的国际民航组织标志是EDDH 它的国际航空运输协会代码是HAM.

这份报告是针对2022年12月2日 19:40, 当地时间在Hohn Air Base进行的。

机场观察

风向为050°,速度为8 kt。

可见度为9 km。

有碎云在1.800 ft的高度。 破损或更高的上限为1.800 ft。

温度为4 °C,阵风为-1 °C。 露点为3 °C,相对湿度为93%。 海平面上的气压为1028 hPa (QNH)。

白天

今天,太阳从08:15升起,在16:03降落。 这适用于Hamburg Airport,世界夏令时可能有所不同。 当地时间与世界标准时间之间的时差为+1 小时。 当前,没有夏令时有效。

公司介绍

我们没有关于这个机场的公司信息。

体会

到Vliegles.nl去找飞行课程,跳伞和其他飞行体验。 浏览页面,了解Hamburg Airport附近所有可用的活动。 你也可以使用搜索功能来寻找你所在地附近的特定飞行课程、跳伞或其他飞行体验。

跑道

Id 标题 侧风 逆风 侧风 %
5/23 050°-230° 8 kt 0 %
15/33 152°-332° 8 kt 2 kt 98 %

逆风成分最大的方向会被突出显示,并用于横风计算。 这并不一定意味着这个方向在使用。

乌云

1.800 ft BKN 碎云

温度 & 天气

温度 4 °C
露点 3 °C
相对湿度 93%
风寒 -1 °C
Kp-index 1 (0-9)

白天

日出
08:20 (12:27)
中午
12:11
日落
16:01

小工具

你想在你的网站上有一个关于Hamburg Airport的当前航空天气(METAR)的小部件吗?

显示HTML代码

我们和第三方通过cookies跟踪您在我们网站上的互联网行为。如果你继续,我们认为你同意我们的饼干政策